Time;durP1;ratioP1;P1;durP2;ratioP2;P2;SDS_P1;SDS_P2;PMS_P1;PMS_P2;Temp;Humidity;BMP_temperature;BMP_pressure;BME280_temperature;BME280_humidity;BME280_pressure;Samples;Min_cycle;Max_cycle;Signal;HPM_P1;HPM_P2
2023/02/26 00:01:26;;;;;;;3.30;1.30;;;;;;;-0.89;90.11;99915.44;110920;1206;140139;-63
2023/02/26 00:03:55;;;;;;;3.10;1.80;;;;;;;-0.90;89.98;99916.34;111039;1209;98029;-64
2023/02/26 00:06:22;;;;;;;5.50;1.70;;;;;;;-0.92;90.04;99920.56;110912;1205;110490;-64
2023/02/26 00:08:48;;;;;;;4.60;1.20;;;;;;;-0.94;90.02;99926.36;111001;1206;140113;-63
2023/02/26 00:11:13;;;;;;;2.40;1.20;;;;;;;-0.95;89.91;99929.52;111052;1206;97665;-64
2023/02/26 00:13:41;;;;;;;2.80;1.20;;;;;;;-0.97;90.06;99928.85;111003;1209;139035;-63
2023/02/26 00:16:30;;;;;;;5.00;1.60;;;;;;;-1.01;90.11;99936.05;111052;1209;111833;-63
2023/02/26 00:18:57;;;;;;;4.60;1.60;;;;;;;-1.03;90.08;99942.03;110964;1209;138600;-63
2023/02/26 00:21:24;;;;;;;5.20;1.70;;;;;;;-1.04;90.11;99941.88;111002;1206;97701;-63
2023/02/26 00:23:51;;;;;;;2.90;1.50;;;;;;;-1.07;90.05;99951.72;111213;1209;97590;-63
2023/02/26 00:26:16;;;;;;;2.40;1.00;;;;;;;-1.09;89.80;99955.23;111117;1205;138941;-63
2023/02/26 00:28:42;;;;;;;3.10;0.80;;;;;;;-1.10;90.07;99962.78;111147;1206;97606;-63
2023/02/26 00:31:08;;;;;;;1.80;1.20;;;;;;;-1.11;89.95;99954.90;111045;1210;139688;-63
2023/02/26 00:33:34;;;;;;;2.30;1.20;;;;;;;-1.14;89.99;99967.19;111066;1208;105984;-63
2023/02/26 00:36:13;;;;;;;6.40;1.50;;;;;;;-1.14;90.23;99957.19;111183;1209;97745;-63
2023/02/26 00:38:45;;;;;;;4.00;1.50;;;;;;;-1.15;90.20;99969.65;110892;1209;139876;-63
2023/02/26 00:41:11;;;;;;;3.00;1.10;;;;;;;-1.15;89.99;99967.20;111048;1206;100138;-63
2023/02/26 00:43:36;;;;;;;4.00;1.30;;;;;;;-1.17;89.97;99971.06;111006;1218;138461;-62
2023/02/26 00:46:17;;;;;;;3.70;0.90;;;;;;;-1.16;90.15;99976.67;111110;1222;98886;-62
2023/02/26 00:49:02;;;;;;;2.00;1.00;;;;;;;-1.14;90.28;99979.11;110871;1209;140196;-62
2023/02/26 00:51:30;;;;;;;4.10;1.40;;;;;;;-1.11;90.24;99984.17;111027;1209;100103;-62
2023/02/26 00:54:11;;;;;;;1.90;1.00;;;;;;;-1.09;90.33;99984.52;111329;1205;107715;-62
2023/02/26 00:56:36;;;;;;;2.30;1.30;;;;;;;-1.07;90.21;99979.94;110958;1209;138950;-62
2023/02/26 00:59:02;;;;;;;3.50;0.90;;;;;;;-1.04;90.29;99983.77;111087;1208;97568;-62
2023/02/26 01:01:27;;;;;;;5.50;1.10;;;;;;;-1.03;90.30;99983.94;110945;1210;140755;-63
2023/02/26 01:03:53;;;;;;;2.80;1.40;;;;;;;-1.01;90.11;99983.58;111061;1206;97671;-62
2023/02/26 01:06:21;;;;;;;3.40;0.90;;;;;;;-0.99;90.23;99985.14;111049;1211;97509;-63
2023/02/26 01:08:53;;;;;;;3.20;1.30;;;;;;;-0.96;90.19;99987.23;111015;1205;140137;-62
2023/02/26 01:11:19;;;;;;;5.20;1.00;;;;;;;-0.96;90.22;99987.40;111081;1211;111740;-62
2023/02/26 01:13:45;;;;;;;4.20;1.20;;;;;;;-0.99;90.23;99987.42;110951;1206;139114;-62
2023/02/26 01:16:19;;;;;;;2.10;1.00;;;;;;;-1.02;90.11;99984.11;111171;1212;97681;-62
2023/02/26 01:18:55;;;;;;;5.90;0.90;;;;;;;-1.06;90.09;99993.61;110980;1222;139045;-62
2023/02/26 01:21:38;;;;;;;2.60;0.80;;;;;;;-1.08;90.06;99995.73;111085;1205;111664;-62
2023/02/26 01:24:07;;;;;;;1.70;0.70;;;;;;;-1.11;89.97;100001.35;111125;1210;99034;-62
2023/02/26 01:26:33;;;;;;;3.10;0.80;;;;;;;-1.12;90.01;99996.63;110892;1210;139550;-62
2023/02/26 01:29:12;;;;;;;5.00;1.00;;;;;;;-1.14;90.27;99995.77;111028;1206;97578;-64
2023/02/26 01:32:17;;;;;;;3.30;0.80;;;;;;;-1.17;90.05;99999.30;111163;1212;138716;-62
2023/02/26 01:34:58;;;;;;;1.80;0.90;;;;;;;-1.19;89.90;100002.98;111055;1206;111607;-62
2023/02/26 01:37:39;;;;;;;3.00;0.80;;;;;;;-1.21;90.12;100011.23;110941;1206;140106;-62
2023/02/26 01:40:14;;;;;;;4.70;1.20;;;;;;;-1.23;90.02;100018.27;111067;1212;108251;-63
2023/02/26 01:42:43;;;;;;;2.70;0.80;;;;;;;-1.25;89.87;100018.09;111038;1206;140809;-59
2023/02/26 01:45:31;;;;;;;4.40;1.00;;;;;;;-1.26;89.95;100025.80;110966;1206;98081;-63
2023/02/26 01:48:17;;;;;;;2.30;0.50;;;;;;;-1.27;90.07;100023.02;110996;1209;112633;-62
2023/02/26 01:50:43;;;;;;;2.80;1.00;;;;;;;-1.29;90.17;100028.28;110882;1211;140016;-62
2023/02/26 01:53:25;;;;;;;1.40;0.80;;;;;;;-1.31;89.94;100036.88;111068;1210;97649;-62
2023/02/26 01:56:05;;;;;;;4.50;1.00;;;;;;;-1.30;89.96;100044.77;111173;1208;139548;-62
2023/02/26 01:58:35;;;;;;;5.60;1.10;;;;;;;-1.30;90.08;100046.52;111086;1206;97936;-63
2023/02/26 02:01:01;;;;;;;3.70;0.80;;;;;;;-1.30;90.02;100040.03;110844;1211;142409;-62
2023/02/26 02:03:29;;;;;;;2.50;1.00;;;;;;;-1.31;89.74;100048.09;110919;1210;98013;-63
2023/02/26 02:06:07;;;;;;;6.70;1.20;;;;;;;-1.32;89.80;100049.86;110883;1206;97680;-62
2023/02/26 02:08:35;;;;;;;2.10;0.90;;;;;;;-1.34;89.96;100050.91;110934;1211;138566;-62
2023/02/26 02:11:03;;;;;;;3.90;1.00;;;;;;;-1.36;89.78;100060.91;111019;1210;97648;-62
2023/02/26 02:13:51;;;;;;;5.00;1.00;;;;;;;-1.39;90.12;100062.33;110923;1206;140920;-62
2023/02/26 02:16:29;;;;;;;2.60;1.30;;;;;;;-1.41;89.90;100063.04;111018;1211;100098;-62
2023/02/26 02:19:22;;;;;;;4.40;1.60;;;;;;;-1.44;89.89;100069.18;110983;1211;139350;-62
2023/02/26 02:22:03;;;;;;;5.60;0.90;;;;;;;-1.46;89.81;100070.60;111053;1211;97593;-62
2023/02/26 02:24:56;;;;;;;1.10;0.60;;;;;;;-1.48;89.76;100073.23;111101;1211;97812;-63
2023/02/26 02:27:28;;;;;;;1.00;0.80;;;;;;;-1.51;89.80;100077.09;111107;1211;112656;-62
2023/02/26 02:30:13;;;;;;;2.80;1.00;;;;;;;-1.54;89.69;100076.58;110986;1212;99566;-62
2023/02/26 02:32:45;;;;;;;3.50;1.20;;;;;;;-1.57;89.82;100087.98;110799;1208;140310;-62
2023/02/26 02:35:23;;;;;;;4.50;1.10;;;;;;;-1.58;90.07;100086.23;110935;1210;97581;-62
2023/02/26 02:38:07;;;;;;;3.00;1.30;;;;;;;-1.58;89.75;100089.91;110858;1211;138642;-62
2023/02/26 02:40:36;;;;;;;2.20;1.00;;;;;;;-1.57;89.90;100092.01;111039;1219;111971;-62
2023/02/26 02:43:08;;;;;;;5.20;2.30;;;;;;;-1.57;89.99;100093.06;111127;1211;139752;-62
2023/02/26 02:45:46;;;;;;;1.50;0.70;;;;;;;-1.57;89.96;100096.39;110998;1206;108720;-62
2023/02/26 02:48:27;;;;;;;1.50;0.90;;;;;;;-1.59;89.79;100100.08;111030;1206;97670;-62
2023/02/26 02:51:29;;;;;;;8.30;2.20;;;;;;;-1.61;89.98;100108.31;110936;1212;138539;-62
2023/02/26 02:54:02;;;;;;;9.30;1.30;;;;;;;-1.61;89.94;100116.02;110969;1212;112726;-62
2023/02/26 02:56:37;;;;;;;6.10;2.20;;;;;;;-1.62;89.87;100119.88;110858;1209;138840;-62
2023/02/26 02:59:15;;;;;;;2.20;1.00;;;;;;;-1.64;89.85;100126.19;111014;1212;108303;-62
2023/02/26 03:01:42;;;;;;;2.20;1.00;;;;;;;-1.66;90.07;100134.95;110896;1206;139955;-62
2023/02/26 03:04:11;;;;;;;5.90;1.70;;;;;;;-1.67;89.83;100137.76;111044;1211;97677;-63
2023/02/26 03:06:37;;;;;;;3.80;0.70;;;;;;;-1.69;89.75;100138.11;111279;1206;111599;-62
2023/02/26 03:09:05;;;;;;;7.10;1.20;;;;;;;-1.71;89.89;100142.48;111146;1206;139859;-62
2023/02/26 03:11:31;;;;;;;2.80;1.20;;;;;;;-1.72;89.97;100142.84;110982;1211;97713;-62
2023/02/26 03:13:58;;;;;;;3.30;0.90;;;;;;;-1.72;90.08;100150.20;110941;1206;139516;-62
2023/02/26 03:17:00;;;;;;;4.20;0.90;;;;;;;-1.72;89.94;100153.02;111186;1206;97697;-63
2023/02/26 03:19:44;;;;;;;0.70;0.50;;;;;;;-1.72;89.95;100161.23;111002;1212;139793;-62
2023/02/26 03:22:31;;;;;;;3.90;0.80;;;;;;;-1.74;89.99;100161.24;111101;1210;100119;-63
2023/02/26 03:25:13;;;;;;;3.70;1.20;;;;;;;-1.75;90.00;100164.22;110865;1219;140153;-63
2023/02/26 03:27:48;;;;;;;0.80;0.50;;;;;;;-1.74;89.81;100163.70;110985;1211;97680;-62
2023/02/26 03:30:24;;;;;;;2.60;0.70;;;;;;;-1.75;90.17;100170.70;110988;1212;98048;-62
2023/02/26 03:33:15;;;;;;;2.60;0.70;;;;;;;-1.77;89.56;100170.17;110911;1206;139679;-62
2023/02/26 03:36:08;;;;;;;2.80;0.90;;;;;;;-1.78;89.83;100184.89;111054;1212;99916;-62
2023/02/26 03:38:50;;;;;;;4.40;0.80;;;;;;;-1.79;90.18;100188.56;110773;1209;139474;-62
2023/02/26 03:41:23;;;;;;;2.00;0.60;;;;;;;-1.80;90.06;100191.89;111051;1220;97681;-63
2023/02/26 03:43:58;;;;;;;3.30;0.60;;;;;;;-1.81;90.16;100196.27;110945;1212;139152;-63
2023/02/26 03:46:32;;;;;;;1.80;0.90;;;;;;;-1.81;90.07;100199.77;111029;1211;111235;-62
2023/02/26 03:49:04;;;;;;;3.40;1.10;;;;;;;-1.81;90.08;100203.10;110980;1219;141273;-62
2023/02/26 03:51:30;;;;;;;3.30;0.70;;;;;;;-1.81;89.94;100217.64;110983;1218;107742;-62
2023/02/26 03:54:19;;;;;;;2.60;1.00;;;;;;;-1.81;90.21;100215.19;111119;1205;97618;-62
2023/02/26 03:56:46;;;;;;;8.60;1.00;;;;;;;-1.82;89.97;100219.21;111074;1212;139411;-62
2023/02/26 03:59:14;;;;;;;2.10;0.90;;;;;;;-1.82;90.16;100219.91;111038;1206;111396;-62
2023/02/26 04:01:56;;;;;;;1.60;0.60;;;;;;;-1.82;90.30;100220.61;110981;1206;138800;-62
2023/02/26 04:04:34;;;;;;;2.60;0.80;;;;;;;-1.82;90.16;100228.50;111009;1211;108830;-63
2023/02/26 04:07:01;;;;;;;2.20;1.00;;;;;;;-1.82;90.19;100232.88;110874;1211;140459;-62
2023/02/26 04:09:26;;;;;;;2.20;0.90;;;;;;;-1.81;90.28;100230.95;111023;1211;97935;-62
2023/02/26 04:11:53;;;;;;;3.80;1.10;;;;;;;-1.81;90.40;100236.55;111156;1210;98043;-62
2023/02/26 04:14:18;;;;;;;3.20;0.60;;;;;;;-1.82;90.25;100234.11;110949;1211;139956;-62
2023/02/26 04:16:44;;;;;;;3.70;1.10;;;;;;;-1.83;90.41;100237.78;111020;1205;97580;-62
2023/02/26 04:19:10;;;;;;;5.40;2.00;;;;;;;-1.82;90.47;100236.90;111014;1206;139920;-62
2023/02/26 04:21:36;;;;;;;2.60;0.60;;;;;;;-1.82;90.32;100247.23;111011;1212;99260;-62
2023/02/26 04:24:01;;;;;;;3.50;0.90;;;;;;;-1.81;90.23;100254.23;111085;1212;97685;-62
2023/02/26 04:26:26;;;;;;;3.20;0.50;;;;;;;-1.81;90.46;100257.04;110994;1219;139318;-62
2023/02/26 04:28:51;;;;;;;3.20;0.70;;;;;;;-1.81;90.48;100255.30;111069;1211;98038;-62
2023/02/26 04:31:17;;;;;;;3.50;0.90;;;;;;;-1.82;90.34;100260.90;110953;1212;138876;-62
2023/02/26 04:33:42;;;;;;;7.50;1.00;;;;;;;-1.82;90.34;100262.83;111034;1212;97601;-62
2023/02/26 04:36:09;;;;;;;3.00;0.90;;;;;;;-1.83;90.38;100261.25;111171;1206;97588;-64
2023/02/26 04:38:34;;;;;;;3.80;0.70;;;;;;;-1.84;90.46;100268.77;111062;1216;141321;-62
2023/02/26 04:40:59;;;;;;;4.00;0.90;;;;;;;-1.84;90.17;100272.27;111044;1206;97353;-62
2023/02/26 04:43:25;;;;;;;1.90;0.80;;;;;;;-1.83;90.47;100270.70;110939;1212;141333;-63
2023/02/26 04:45:50;;;;;;;4.40;0.80;;;;;;;-1.82;90.49;100283.84;111112;1206;97670;-62
2023/02/26 04:48:15;;;;;;;5.00;0.80;;;;;;;-1.81;90.49;100279.46;110998;1212;99578;-62
2023/02/26 04:50:41;;;;;;;2.20;0.90;;;;;;;-1.79;90.49;100281.21;110926;1212;139845;-63
2023/02/26 04:53:07;;;;;;;2.10;0.90;;;;;;;-1.78;90.51;100286.64;111008;1209;96906;-62
2023/02/26 04:55:33;;;;;;;1.70;0.70;;;;;;;-1.75;90.72;100290.31;110843;1206;138570;-62
2023/02/26 04:57:59;;;;;;;5.30;1.00;;;;;;;-1.73;90.91;100289.98;111273;1208;97650;-62
2023/02/26 05:00:24;;;;;;;6.30;1.20;;;;;;;-1.70;90.83;100291.02;111036;1211;97690;-62
2023/02/26 05:02:50;;;;;;;4.30;1.00;;;;;;;-1.68;90.83;100293.13;110896;1212;139550;-62
2023/02/26 05:05:15;;;;;;;2.20;1.00;;;;;;;-1.65;90.91;100297.15;111168;1206;97661;-62
2023/02/26 05:07:40;;;;;;;1.80;1.00;;;;;;;-1.62;90.79;100300.83;110837;1211;138784;-62
2023/02/26 05:10:07;;;;;;;4.70;0.90;;;;;;;-1.60;90.62;100302.42;110957;1211;97687;-62
2023/02/26 05:12:32;;;;;;;3.50;1.20;;;;;;;-1.57;90.61;100309.60;110990;1206;111061;-62
2023/02/26 05:14:57;;;;;;;9.40;1.00;;;;;;;-1.55;90.91;100313.11;110971;1212;140260;-63
2023/02/26 05:17:23;;;;;;;4.20;0.90;;;;;;;-1.53;90.97;100315.55;111071;1209;97667;-62
2023/02/26 05:19:48;;;;;;;1.30;0.80;;;;;;;-1.51;90.82;100315.91;110911;1212;139606;-62
2023/02/26 05:22:13;;;;;;;4.70;1.20;;;;;;;-1.50;90.99;100322.05;111228;1207;97609;-62
2023/02/26 05:24:39;;;;;;;3.80;1.30;;;;;;;-1.47;91.11;100318.02;110981;1206;97795;-63
2023/02/26 05:27:04;;;;;;;1.70;0.80;;;;;;;-1.45;90.79;100326.42;110891;1211;140154;-62
2023/02/26 05:29:29;;;;;;;1.90;1.00;;;;;;;-1.44;91.00;100330.63;110992;1211;96539;-65
2023/02/26 05:31:55;;;;;;;3.90;1.20;;;;;;;-1.42;90.99;100332.73;110848;1212;138988;-62
2023/02/26 05:34:20;;;;;;;4.80;1.20;;;;;;;-1.41;90.92;100337.29;111055;1212;97598;-62
2023/02/26 05:36:45;;;;;;;2.10;0.80;;;;;;;-1.40;90.92;100340.27;110899;1209;140320;-61
2023/02/26 05:39:11;;;;;;;4.10;0.90;;;;;;;-1.39;91.06;100341.67;111134;1212;97668;-63
2023/02/26 05:41:36;;;;;;;5.10;0.80;;;;;;;-1.37;90.78;100344.30;111096;1206;96544;-63
2023/02/26 05:44:02;;;;;;;5.90;1.40;;;;;;;-1.36;90.96;100348.16;110962;1210;139608;-62
2023/02/26 05:46:27;;;;;;;3.80;1.10;;;;;;;-1.34;91.08;100355.52;111072;1206;97689;-63
2023/02/26 05:48:53;;;;;;;9.20;0.90;;;;;;;-1.30;91.05;100364.10;110926;1212;139239;-63
2023/02/26 05:51:18;;;;;;;1.80;1.10;;;;;;;-1.28;91.15;100369.02;111032;1206;98996;-63
2023/02/26 05:53:44;;;;;;;3.00;1.20;;;;;;;-1.26;90.87;100370.77;111013;1218;97293;-63
2023/02/26 05:56:09;;;;;;;1.40;0.80;;;;;;;-1.24;90.95;100376.73;110925;1212;138911;-63
2023/02/26 05:58:35;;;;;;;4.00;1.10;;;;;;;-1.22;90.91;100380.41;110980;1212;97664;-62
2023/02/26 06:01:00;;;;;;;3.70;1.40;;;;;;;-1.21;90.85;100385.14;110695;1222;140108;-63
2023/02/26 06:03:26;;;;;;;3.00;1.30;;;;;;;-1.20;91.06;100391.10;110823;1211;97722;-63
2023/02/26 06:05:51;;;;;;;3.30;0.90;;;;;;;-1.18;91.03;100391.80;111092;1212;97376;-63
2023/02/26 06:08:16;;;;;;;4.00;1.00;;;;;;;-1.16;90.76;100400.74;110770;1212;138893;-63
2023/02/26 06:10:42;;;;;;;4.40;1.00;;;;;;;-1.14;90.91;100402.67;110984;1212;97619;-63
2023/02/26 06:13:07;;;;;;;4.80;1.20;;;;;;;-1.15;90.96;100407.76;110819;1212;138604;-63
2023/02/26 06:15:33;;;;;;;4.10;1.10;;;;;;;-1.12;90.82;100410.04;110772;1212;97602;-63
2023/02/26 06:17:58;;;;;;;6.60;1.30;;;;;;;-1.10;90.83;100415.83;110896;1212;97965;-63
2023/02/26 06:20:23;;;;;;;7.10;1.10;;;;;;;-1.08;90.95;100420.38;110888;1212;139273;-63
2023/02/26 06:22:49;;;;;;;2.20;1.00;;;;;;;-1.03;91.09;100420.21;111037;1206;99389;-63
2023/02/26 06:25:15;;;;;;;5.20;1.10;;;;;;;-0.98;91.11;100423.19;110775;1206;138707;-63
2023/02/26 06:27:40;;;;;;;2.90;1.20;;;;;;;-0.93;91.10;100420.73;111006;1211;97785;-63
2023/02/26 06:30:06;;;;;;;6.80;1.70;;;;;;;-0.89;91.14;100426.17;111063;1206;97715;-63
2023/02/26 06:32:32;;;;;;;4.30;2.00;;;;;;;-0.84;90.98;100434.41;113183;1205;139470;-63
2023/02/26 06:34:57;;;;;;;1.50;0.90;;;;;;;-0.80;91.07;100439.85;113288;1206;95625;-64
2023/02/26 06:37:23;;;;;;;3.40;1.20;;;;;;;-0.78;90.97;100441.95;111036;1212;138503;-63
2023/02/26 06:39:48;;;;;;;5.30;1.70;;;;;;;-0.79;90.96;100448.09;110815;1212;96453;-63
2023/02/26 06:42:13;;;;;;;4.40;1.10;;;;;;;-0.78;91.01;100444.75;110923;1212;97697;-63
2023/02/26 06:44:38;;;;;;;4.50;0.90;;;;;;;-0.76;91.06;100448.97;110815;1212;138691;-63
2023/02/26 06:47:04;;;;;;;3.50;1.40;;;;;;;-0.74;91.10;100451.06;111031;1208;100196;-63
2023/02/26 06:49:29;;;;;;;4.70;1.30;;;;;;;-0.72;90.95;100453.17;110972;1209;138836;-63
2023/02/26 06:51:55;;;;;;;2.10;1.00;;;;;;;-0.68;91.10;100458.44;111006;1206;97686;-64
2023/02/26 06:54:21;;;;;;;4.70;1.50;;;;;;;-0.65;91.18;100467.38;110987;1207;97763;-63
2023/02/26 06:56:46;;;;;;;3.30;1.10;;;;;;;-0.62;91.12;100467.73;110740;1206;139679;-63
2023/02/26 06:59:13;;;;;;;6.30;1.60;;;;;;;-0.58;91.10;100477.02;110850;1222;97680;-63
2023/02/26 07:01:38;;;;;;;1.80;1.20;;;;;;;-0.55;91.02;100477.72;110671;1212;143711;-63
2023/02/26 07:04:04;;;;;;;5.50;1.70;;;;;;;-0.52;91.13;100476.14;111001;1219;97675;-63
2023/02/26 07:06:29;;;;;;;2.80;1.00;;;;;;;-0.48;91.07;100481.05;110794;1212;97786;-63
2023/02/26 07:08:54;;;;;;;2.50;1.20;;;;;;;-0.47;91.06;100485.27;110920;1212;139972;-63
2023/02/26 07:11:20;;;;;;;2.40;1.30;;;;;;;-0.48;90.99;100488.24;110968;1212;97763;-63
2023/02/26 07:13:45;;;;;;;4.80;1.40;;;;;;;-0.49;90.91;100489.30;110672;1212;139591;-63
2023/02/26 07:16:11;;;;;;;9.10;1.10;;;;;;;-0.50;90.97;100495.97;110744;1212;97684;-63
2023/02/26 07:18:36;;;;;;;9.00;1.50;;;;;;;-0.50;90.90;100502.47;110561;1208;97703;-63
2023/02/26 07:21:03;;;;;;;6.20;1.50;;;;;;;-0.50;90.92;100505.27;110549;1212;140015;-63
2023/02/26 07:23:29;;;;;;;6.90;2.00;;;;;;;-0.50;90.84;100509.84;110694;1209;99077;-63
2023/02/26 07:25:55;;;;;;;5.20;1.60;;;;;;;-0.52;90.79;100515.80;110497;1212;140582;-63
2023/02/26 07:28:22;;;;;;;7.30;1.60;;;;;;;-0.52;91.07;100516.86;110499;1212;97615;-63
2023/02/26 07:30:47;;;;;;;8.70;1.60;;;;;;;-0.46;91.09;100519.48;110615;1212;139190;-60
2023/02/26 07:33:12;;;;;;;7.10;1.70;;;;;;;-0.38;91.16;100522.48;110616;1209;97569;-61
2023/02/26 07:35:38;;;;;;;8.90;2.30;;;;;;;-0.33;91.19;100521.94;110575;1223;97733;-62
2023/02/26 07:38:05;;;;;;;7.90;1.70;;;;;;;-0.27;91.17;100528.08;110543;1209;140072;-62
2023/02/26 07:40:33;;;;;;;8.20;2.00;;;;;;;-0.23;91.41;100534.04;110559;1212;97735;-63
2023/02/26 07:42:58;;;;;;;6.20;2.10;;;;;;;-0.16;91.37;100536.13;110647;1206;140481;-62
2023/02/26 07:45:26;;;;;;;8.90;1.90;;;;;;;-0.11;91.37;100537.00;110769;1212;97695;-62
2023/02/26 07:47:52;;;;;;;9.00;1.80;;;;;;;-0.05;91.41;100544.20;110839;1212;97602;-62
2023/02/26 07:50:19;;;;;;;8.20;2.30;;;;;;;-0.03;91.36;100535.23;110982;1212;139860;-62
2023/02/26 07:52:45;;;;;;;8.90;1.80;;;;;;;0.02;91.42;100546.26;111028;1210;112171;-62
2023/02/26 07:55:11;;;;;;;7.20;1.80;;;;;;;0.08;91.50;100555.73;111105;1207;140322;-62
2023/02/26 07:57:36;;;;;;;7.70;1.90;;;;;;;0.13;91.45;100559.58;110984;1212;97690;-63
2023/02/26 08:00:04;;;;;;;8.10;1.70;;;;;;;0.18;91.40;100559.04;110986;1206;99321;-63
2023/02/26 08:02:29;;;;;;;5.80;1.70;;;;;;;0.26;91.50;100566.05;110807;1211;138343;-62
2023/02/26 08:04:55;;;;;;;8.20;1.80;;;;;;;0.33;91.52;100569.89;110915;1210;98571;-61
2023/02/26 08:07:21;;;;;;;4.00;1.40;;;;;;;0.37;91.35;100571.81;110795;1210;139901;-62
2023/02/26 08:09:46;;;;;;;2.40;1.30;;;;;;;0.45;91.38;100573.19;110874;1212;98889;-61
2023/02/26 08:12:11;;;;;;;6.90;1.20;;;;;;;0.52;91.51;100581.77;110888;1209;97610;-62
2023/02/26 08:14:38;;;;;;;6.60;1.30;;;;;;;0.52;91.24;100586.70;110774;1216;139268;-61
2023/02/26 08:17:04;;;;;;;4.60;1.60;;;;;;;0.50;90.89;100591.80;110953;1208;97639;-61
2023/02/26 08:19:29;;;;;;;5.00;1.30;;;;;;;0.52;91.06;100599.71;110654;1206;140033;-61
2023/02/26 08:21:55;;;;;;;6.30;1.60;;;;;;;0.55;90.87;100603.40;111027;1206;97588;-60
2023/02/26 08:24:21;;;;;;;5.10;1.40;;;;;;;0.53;90.40;100608.15;110826;1224;97562;-61
2023/02/26 08:26:46;;;;;;;7.90;1.40;;;;;;;0.52;90.21;100611.67;110690;1206;138410;-60
2023/02/26 08:29:12;;;;;;;8.90;2.30;;;;;;;0.52;89.99;100611.66;110944;1206;111130;-61
2023/02/26 08:31:37;;;;;;;6.20;1.70;;;;;;;0.55;89.92;100617.98;110786;1212;140260;-61
2023/02/26 08:34:02;;;;;;;5.70;1.50;;;;;;;0.55;89.89;100627.48;110948;1209;97689;-60
2023/02/26 08:36:28;;;;;;;6.00;2.30;;;;;;;0.55;89.64;100630.83;110897;1209;97003;-60
2023/02/26 08:38:54;;;;;;;6.40;1.80;;;;;;;0.54;89.43;100632.23;110939;1206;140025;-60
2023/02/26 08:41:19;;;;;;;4.70;1.60;;;;;;;0.55;89.33;100644.52;111080;1210;97636;-61
2023/02/26 08:43:44;;;;;;;7.40;1.70;;;;;;;0.56;89.07;100643.48;110807;1206;138785;-61
2023/02/26 08:46:10;;;;;;;5.90;1.60;;;;;;;0.58;89.14;100644.00;110954;1221;97589;-61
2023/02/26 08:48:35;;;;;;;10.00;1.40;;;;;;;0.59;88.65;100645.93;110715;1206;97575;-60
2023/02/26 08:51:00;;;;;;;5.50;1.50;;;;;;;0.59;88.58;100652.61;110921;1222;138312;-61
2023/02/26 08:53:26;;;;;;;5.60;1.30;;;;;;;0.60;88.50;100656.64;110871;1222;97960;-61
2023/02/26 08:55:52;;;;;;;4.60;1.20;;;;;;;0.63;88.38;100660.70;110795;1209;139337;-62
2023/02/26 08:58:18;;;;;;;8.40;2.10;;;;;;;0.65;88.23;100664.02;111118;1206;97610;-61
2023/02/26 09:00:44;;;;;;;8.20;1.30;;;;;;;0.69;88.53;100669.99;111023;1209;139458;-60
2023/02/26 09:03:09;;;;;;;8.40;1.30;;;;;;;0.77;88.42;100674.20;110893;1210;98106;-61
2023/02/26 09:05:35;;;;;;;11.50;1.80;;;;;;;0.82;88.26;100678.75;111011;1206;97632;-60
2023/02/26 09:08:01;;;;;;;7.30;1.70;;;;;;;0.79;87.60;100687.20;110894;1209;139894;-61
2023/02/26 09:10:26;;;;;;;5.10;1.20;;;;;;;0.76;87.28;100685.80;111076;1206;97562;-61
2023/02/26 09:12:52;;;;;;;7.10;1.40;;;;;;;0.81;87.30;100694.58;111032;1209;140266;-61
2023/02/26 09:15:17;;;;;;;5.40;1.50;;;;;;;0.87;87.03;100698.79;111066;1206;97524;-61
2023/02/26 09:17:43;;;;;;;6.40;2.50;;;;;;;0.90;86.98;100702.47;111108;1212;97747;-61
2023/02/26 09:20:09;;;;;;;5.30;1.90;;;;;;;0.92;86.87;100705.27;110970;1212;140483;-61
2023/02/26 09:22:35;;;;;;;5.80;1.50;;;;;;;0.97;86.80;100711.07;111142;1206;96505;-61
2023/02/26 09:25:01;;;;;;;7.00;2.00;;;;;;;0.95;86.65;100715.48;111097;1210;139665;-61
2023/02/26 09:27:27;;;;;;;6.70;1.50;;;;;;;0.97;86.86;100723.73;111277;1206;97581;-61
2023/02/26 09:29:52;;;;;;;6.00;1.10;;;;;;;0.98;86.42;100725.32;111115;1206;97678;-61
2023/02/26 09:32:17;;;;;;;7.80;1.50;;;;;;;0.91;85.65;100729.56;110891;1210;140729;-61
2023/02/26 09:34:43;;;;;;;8.90;1.50;;;;;;;0.86;85.28;100741.71;111063;1206;98218;-61
2023/02/26 09:37:08;;;;;;;7.70;1.60;;;;;;;0.88;84.97;100738.72;110955;1206;139690;-61
2023/02/26 09:39:35;;;;;;;3.30;1.60;;;;;;;0.96;85.11;100743.44;111179;1206;97655;-61
2023/02/26 09:42:38;;;;;;;10.60;2.00;;;;;;;1.10;85.43;100747.61;111114;1209;99995;-61
2023/02/26 09:45:10;;;;;;;4.70;1.30;;;;;;;1.28;85.66;100753.02;110982;1210;138251;-61
2023/02/26 09:47:45;;;;;;;7.90;1.60;;;;;;;1.39;85.38;100760.36;111027;1206;97779;-61
2023/02/26 09:50:21;;;;;;;4.80;1.30;;;;;;;1.43;84.94;100761.41;110906;1206;139339;-61
2023/02/26 09:52:53;;;;;;;8.90;1.50;;;;;;;1.46;84.71;100762.10;111078;1209;110702;-61
2023/02/26 09:55:42;;;;;;;2.50;1.10;;;;;;;1.56;85.05;100763.10;111068;1209;138879;-62
2023/02/26 09:58:27;;;;;;;8.50;1.30;;;;;;;1.75;85.08;100767.77;111083;1225;108257;-61
2023/02/26 10:01:18;;;;;;;7.50;0.90;;;;;;;1.90;85.42;100771.90;110957;1212;139167;-62
2023/02/26 10:03:59;;;;;;;2.60;0.90;;;;;;;1.99;84.83;100772.90;111120;1206;97760;-60
2023/02/26 10:06:37;;;;;;;6.20;1.30;;;;;;;1.95;83.63;100782.45;111107;1206;111740;-62
2023/02/26 10:09:11;;;;;;;8.00;1.20;;;;;;;1.82;83.01;100786.40;111041;1210;138764;-61
2023/02/26 10:11:51;;;;;;;9.00;1.70;;;;;;;1.78;82.98;100791.35;111073;1210;108095;-61
2023/02/26 10:14:45;;;;;;;6.10;1.80;;;;;;;1.82;82.41;100794.16;111002;1206;138937;-62
2023/02/26 10:17:25;;;;;;;5.40;2.00;;;;;;;1.90;82.77;100793.22;111184;1209;97875;-61
2023/02/26 10:19:59;;;;;;;7.70;1.80;;;;;;;2.01;82.63;100793.34;111112;1206;139375;-61
2023/02/26 10:22:34;;;;;;;10.60;2.50;;;;;;;2.11;82.63;100795.22;111083;1206;101549;-62
2023/02/26 10:25:14;;;;;;;16.70;2.60;;;;;;;2.23;82.60;100794.42;111040;1205;138779;-61
2023/02/26 10:27:49;;;;;;;9.50;1.80;;;;;;;2.38;82.45;100798.55;111125;1206;97681;-61
2023/02/26 10:30:34;;;;;;;4.10;1.40;;;;;;;2.44;81.55;100799.20;111188;1206;97645;-61
2023/02/26 10:33:30;;;;;;;6.70;2.00;;;;;;;2.53;81.62;100803.02;111054;1209;139253;-61
2023/02/26 10:36:08;;;;;;;6.50;2.10;;;;;;;2.71;81.80;100801.95;111123;1209;99412;-61
2023/02/26 10:38:34;;;;;;;5.40;1.70;;;;;;;2.80;81.00;100812.10;110936;1212;139817;-61
2023/02/26 10:41:14;;;;;;;4.40;1.20;;;;;;;2.86;80.88;100814.52;110841;1206;97681;-62
2023/02/26 10:43:43;;;;;;;3.80;0.80;;;;;;;2.87;80.52;100816.27;110693;1206;140077;-62
2023/02/26 10:46:28;;;;;;;4.20;1.20;;;;;;;2.85;79.72;100822.65;111001;1206;111903;-61
2023/02/26 10:49:24;;;;;;;7.00;1.30;;;;;;;2.74;78.15;100825.39;110990;1209;140118;-61
2023/02/26 10:51:52;;;;;;;3.10;0.80;;;;;;;2.56;77.82;100833.52;110972;1221;109596;-61
2023/02/26 10:54:32;;;;;;;5.70;1.50;;;;;;;2.56;77.98;100837.20;111018;1212;97694;-60
2023/02/26 10:56:57;;;;;;;4.50;1.20;;;;;;;2.55;77.79;100837.05;110882;1206;138229;-61
2023/02/26 10:59:23;;;;;;;3.00;1.60;;;;;;;2.53;77.43;100839.17;111052;1209;97669;-61
2023/02/26 11:01:50;;;;;;;7.30;1.80;;;;;;;2.58;77.81;100846.36;110904;1206;140023;-61
2023/02/26 11:04:25;;;;;;;6.00;1.70;;;;;;;2.73;78.15;100845.70;111081;1209;97770;-61
2023/02/26 11:06:55;;;;;;;3.70;1.50;;;;;;;2.84;77.75;100846.12;111080;1206;138734;-61
2023/02/26 11:09:32;;;;;;;6.70;1.10;;;;;;;2.88;77.60;100846.80;110998;1212;111758;-61
2023/02/26 11:12:12;;;;;;;4.20;1.20;;;;;;;3.01;77.63;100840.15;110998;1206;99445;-60
2023/02/26 11:14:38;;;;;;;5.00;1.40;;;;;;;3.23;77.77;100843.64;110856;1205;139403;-61
2023/02/26 11:17:15;;;;;;;3.80;1.00;;;;;;;3.24;75.05;100842.57;111171;1206;97713;-61
2023/02/26 11:19:49;;;;;;;3.40;1.00;;;;;;;3.12;75.52;100850.64;110916;1209;138294;-62
2023/02/26 11:22:17;;;;;;;10.80;1.10;;;;;;;3.03;73.84;100854.61;111026;1209;111599;-63
2023/02/26 11:24:49;;;;;;;4.20;0.90;;;;;;;2.94;74.63;100859.98;110869;1206;138810;-60
2023/02/26 11:27:44;;;;;;;2.60;0.90;;;;;;;2.92;73.37;100863.18;111118;1206;107952;-63
2023/02/26 11:30:20;;;;;;;6.90;1.00;;;;;;;2.84;72.85;100859.73;111017;1211;97705;-63
2023/02/26 11:32:51;;;;;;;3.10;1.10;;;;;;;2.92;73.50;100860.70;110949;1208;138272;-63